createdAt,value
2022-11-16T00:02:16.550Z,98.38
2022-11-16T00:04:42.986Z,98.59
2022-11-16T00:07:09.951Z,98.65
2022-11-16T00:09:36.411Z,98.24
2022-11-16T00:12:06.331Z,98.66
2022-11-16T00:14:35.291Z,98.57
2022-11-16T00:17:02.432Z,98.75
2022-11-16T00:19:29.239Z,98.76
2022-11-16T00:21:55.868Z,98.82
2022-11-16T00:24:23.410Z,98.65
2022-11-16T00:26:50.437Z,98.52
2022-11-16T00:29:19.482Z,98.67
2022-11-16T00:31:46.381Z,98.98
2022-11-16T00:34:13.630Z,98.91
2022-11-16T00:36:39.993Z,98.55
2022-11-16T00:39:06.397Z,98.53
2022-11-16T00:41:32.979Z,98.66
2022-11-16T00:43:59.316Z,98.83
2022-11-16T00:46:25.781Z,98.79
2022-11-16T00:48:52.214Z,98.96
2022-11-16T00:51:18.697Z,98.83
2022-11-16T00:53:45.014Z,98.68
2022-11-16T00:56:11.469Z,99.03
2022-11-16T00:58:37.837Z,98.99
2022-11-16T01:01:06.357Z,99.10
2022-11-16T01:03:34.233Z,98.88
2022-11-16T01:06:06.002Z,98.86
2022-11-16T01:08:35.074Z,98.79
2022-11-16T01:11:21.716Z,98.61
2022-11-16T01:13:49.156Z,98.70
2022-11-16T01:16:16.615Z,98.87
2022-11-16T01:18:43.880Z,98.93
2022-11-16T01:21:10.437Z,98.73
2022-11-16T01:23:36.823Z,98.85
2022-11-16T01:26:09.124Z,98.94
2022-11-16T01:28:35.900Z,98.95
2022-11-16T01:31:02.704Z,98.86
2022-11-16T01:33:29.683Z,99.06
2022-11-16T01:35:56.032Z,99.03
2022-11-16T01:38:25.914Z,98.80
2022-11-16T01:40:54.893Z,99.02
2022-11-16T01:43:26.989Z,98.85
2022-11-16T01:45:53.340Z,98.84
2022-11-16T01:48:27.596Z,98.85
2022-11-16T01:50:55.038Z,98.95
2022-11-16T01:53:24.000Z,98.80
2022-11-16T01:55:50.705Z,98.96
2022-11-16T01:58:23.218Z,98.90
2022-11-16T02:00:50.162Z,99.16
2022-11-16T02:03:20.690Z,99.06
2022-11-16T02:06:22.816Z,99.08
2022-11-16T02:09:39.120Z,99.13
2022-11-16T02:12:26.958Z,99.19
2022-11-16T02:15:23.266Z,99.20
2022-11-16T02:17:55.644Z,99.28
2022-11-16T02:20:46.674Z,99.24
2022-11-16T02:23:43.290Z,99.18
2022-11-16T02:26:28.141Z,99.12
2022-11-16T02:29:18.961Z,99.19
2022-11-16T02:32:04.729Z,98.92
2022-11-16T02:34:39.194Z,98.71
2022-11-16T02:37:09.650Z,98.66
2022-11-16T02:39:41.188Z,98.73
2022-11-16T02:42:15.476Z,98.60
2022-11-16T02:44:47.365Z,98.41
2022-11-16T02:47:20.857Z,98.44
2022-11-16T02:49:52.754Z,98.40
2022-11-16T02:52:21.451Z,98.46
2022-11-16T02:54:47.780Z,98.41
2022-11-16T02:57:35.279Z,98.28
2022-11-16T03:00:02.664Z,98.23
2022-11-16T03:02:55.896Z,98.08
2022-11-16T03:05:35.248Z,98.26
2022-11-16T03:08:38.564Z,97.98
2022-11-16T03:11:26.139Z,98.12
2022-11-16T03:13:57.292Z,97.96
2022-11-16T03:16:30.006Z,98.02
2022-11-16T03:18:58.873Z,97.93
2022-11-16T03:21:43.705Z,98.07
2022-11-16T03:24:10.792Z,98.11
2022-11-16T03:26:49.276Z,97.99
2022-11-16T03:29:29.226Z,97.87
2022-11-16T03:32:03.635Z,97.91
2022-11-16T03:34:35.869Z,98.04
2022-11-16T03:37:04.017Z,97.90
2022-11-16T03:39:35.627Z,97.96
2022-11-16T03:42:06.668Z,97.96
2022-11-16T03:44:33.586Z,97.88
2022-11-16T03:47:01.598Z,97.77
2022-11-16T03:49:31.310Z,97.83
2022-11-16T03:52:01.308Z,97.97
2022-11-16T03:54:27.649Z,97.86
2022-11-16T03:56:53.982Z,97.85
2022-11-16T03:59:20.326Z,97.55
2022-11-16T04:01:46.782Z,97.72
2022-11-16T04:04:35.436Z,97.58
2022-11-16T04:07:22.167Z,97.49
2022-11-16T04:10:07.097Z,97.38
2022-11-16T04:12:52.174Z,97.29
2022-11-16T04:15:36.974Z,97.20
2022-11-16T04:18:22.558Z,97.34
2022-11-16T04:21:07.949Z,97.23
2022-11-16T04:23:52.633Z,97.09
2022-11-16T04:26:18.967Z,97.23
2022-11-16T04:28:45.459Z,97.29
2022-11-16T04:31:30.510Z,97.30
2022-11-16T04:34:15.290Z,97.55
2022-11-16T04:37:00.227Z,96.94
2022-11-16T04:39:26.592Z,96.85
2022-11-16T04:42:11.522Z,96.82
2022-11-16T04:45:00.446Z,96.50
2022-11-16T04:47:26.762Z,96.48
2022-11-16T04:49:53.069Z,96.60
2022-11-16T04:52:19.430Z,96.53
2022-11-16T04:54:45.804Z,96.33
2022-11-16T04:57:12.141Z,96.24
2022-11-16T04:59:38.557Z,96.13
2022-11-16T05:02:10.857Z,96.33
2022-11-16T05:04:39.634Z,96.38
2022-11-16T05:07:10.919Z,96.24
2022-11-16T05:09:44.731Z,96.12
2022-11-16T05:12:15.487Z,96.23
2022-11-16T05:14:42.766Z,95.95
2022-11-16T05:17:09.884Z,96.17
2022-11-16T05:19:54.843Z,96.11
2022-11-16T05:22:21.412Z,96.02
2022-11-16T05:24:47.757Z,95.91
2022-11-16T05:27:16.234Z,95.96
2022-11-16T05:29:42.659Z,96.04
2022-11-16T05:32:11.169Z,95.94
2022-11-16T05:34:37.873Z,95.60
2022-11-16T05:37:04.385Z,95.76
2022-11-16T05:39:30.731Z,95.85
2022-11-16T05:41:57.505Z,95.74
2022-11-16T05:44:24.535Z,95.69
2022-11-16T05:46:51.145Z,95.83
2022-11-16T05:49:17.903Z,95.57
2022-11-16T05:51:46.147Z,95.55
2022-11-16T05:54:18.597Z,95.60
2022-11-16T05:56:45.849Z,95.44
2022-11-16T05:59:16.598Z,95.93
2022-11-16T06:01:44.267Z,95.69
2022-11-16T06:04:11.453Z,95.63
2022-11-16T06:06:38.420Z,95.97
2022-11-16T06:09:05.147Z,95.95
2022-11-16T06:11:35.779Z,95.84
2022-11-16T06:14:03.436Z,96.04
2022-11-16T06:16:29.837Z,95.78
2022-11-16T06:18:56.312Z,96.05
2022-11-16T06:21:25.363Z,95.32
2022-11-16T06:23:57.463Z,95.92
2022-11-16T06:26:23.701Z,95.76
2022-11-16T06:28:50.294Z,95.73
2022-11-16T06:31:16.864Z,95.90
2022-11-16T06:33:43.353Z,95.57
2022-11-16T06:36:09.716Z,95.71
2022-11-16T06:38:36.358Z,95.50
2022-11-16T06:41:03.194Z,95.48
2022-11-16T06:43:29.662Z,95.20
2022-11-16T06:45:57.801Z,94.94
2022-11-16T06:48:24.909Z,94.84
2022-11-16T06:50:52.127Z,94.69
2022-11-16T06:53:19.112Z,94.76
2022-11-16T06:55:47.750Z,95.07
2022-11-16T06:58:14.565Z,94.91
2022-11-16T07:00:41.084Z,94.81
2022-11-16T07:03:07.475Z,94.78
2022-11-16T07:05:36.036Z,94.93
2022-11-16T07:08:02.405Z,94.59
2022-11-16T07:10:28.740Z,94.43
2022-11-16T07:12:55.077Z,94.18
2022-11-16T07:15:21.850Z,93.84
2022-11-16T07:17:48.186Z,94.17
2022-11-16T07:20:14.812Z,94.39
2022-11-16T07:22:41.165Z,94.00
2022-11-16T07:25:08.221Z,94.06
2022-11-16T07:27:34.676Z,94.34
2022-11-16T07:30:02.083Z,94.13
2022-11-16T07:32:31.000Z,94.26
2022-11-16T07:34:59.376Z,94.15
2022-11-16T07:37:26.012Z,94.15
2022-11-16T07:39:52.853Z,93.89
2022-11-16T07:42:19.278Z,94.04
2022-11-16T07:44:45.705Z,93.49
2022-11-16T07:47:12.093Z,93.96
2022-11-16T07:49:38.603Z,93.82
2022-11-16T07:52:05.161Z,94.09
2022-11-16T07:54:31.478Z,94.01
2022-11-16T07:56:57.829Z,93.23
2022-11-16T07:59:24.236Z,92.75
2022-11-16T08:01:50.653Z,92.72
2022-11-16T08:04:19.771Z,92.48
2022-11-16T08:06:46.831Z,92.44
2022-11-16T08:09:13.978Z,92.38
2022-11-16T08:11:40.394Z,92.06
2022-11-16T08:14:06.748Z,92.15
2022-11-16T08:16:33.300Z,92.26
2022-11-16T08:19:01.139Z,92.22
2022-11-16T08:21:27.571Z,92.04
2022-11-16T08:23:58.419Z,91.99
2022-11-16T08:26:25.670Z,92.30
2022-11-16T08:28:53.690Z,92.45
2022-11-16T08:31:24.037Z,92.46
2022-11-16T08:33:51.788Z,92.28
2022-11-16T08:36:18.873Z,92.12
2022-11-16T08:38:47.232Z,92.40
2022-11-16T08:41:14.022Z,92.13
2022-11-16T08:43:41.530Z,91.94
2022-11-16T08:46:09.493Z,92.12
2022-11-16T08:48:37.589Z,92.08
2022-11-16T08:51:22.000Z,92.17
2022-11-16T08:53:49.373Z,92.05
2022-11-16T08:56:18.385Z,91.76
2022-11-16T08:58:46.978Z,92.16
2022-11-16T09:01:20.128Z,91.31
2022-11-16T09:03:47.242Z,90.95
2022-11-16T09:06:14.311Z,91.39
2022-11-16T09:08:43.000Z,91.10
2022-11-16T09:11:12.746Z,91.30
2022-11-16T09:13:39.754Z,91.28
2022-11-16T09:16:06.279Z,89.76
2022-11-16T09:18:36.927Z,87.72
2022-11-16T09:21:03.927Z,85.24
2022-11-16T09:23:30.314Z,81.00
2022-11-16T09:26:01.429Z,80.88
2022-11-16T09:28:28.029Z,81.66
2022-11-16T09:31:02.467Z,81.22
2022-11-16T09:33:31.168Z,81.50
2022-11-16T09:36:06.991Z,81.17
2022-11-16T09:42:08.240Z,81.10
2022-11-16T09:44:40.241Z,80.79
2022-11-16T09:47:11.445Z,81.23
2022-11-16T09:49:47.721Z,81.73
2022-11-16T09:52:28.352Z,82.38
2022-11-16T09:54:57.935Z,82.80
2022-11-16T09:57:32.518Z,82.90
2022-11-16T10:00:04.368Z,82.44
2022-11-16T10:02:41.837Z,82.86
2022-11-16T10:05:21.672Z,83.39
2022-11-16T10:08:00.100Z,81.87
2022-11-16T10:10:36.688Z,82.22
2022-11-16T10:13:20.755Z,81.83
2022-11-16T10:16:14.428Z,82.42
2022-11-16T10:19:00.385Z,80.79
2022-11-16T10:21:55.227Z,76.29
2022-11-16T10:24:44.689Z,73.05
2022-11-16T10:27:53.051Z,72.13
2022-11-16T10:30:21.742Z,68.84
2022-11-16T10:33:13.329Z,67.28
2022-11-16T10:36:10.854Z,65.49
2022-11-16T10:38:37.694Z,61.82
2022-11-16T10:41:14.240Z,60.12
2022-11-16T10:43:43.321Z,58.95
2022-11-16T10:46:21.337Z,58.60
2022-11-16T10:48:47.591Z,56.84
2022-11-16T10:51:13.977Z,55.59
2022-11-16T10:53:43.730Z,56.65
2022-11-16T10:56:21.831Z,54.07
2022-11-16T10:58:56.520Z,52.57
2022-11-16T11:01:53.263Z,51.65
2022-11-16T11:04:24.308Z,50.83
2022-11-16T11:06:58.326Z,50.35
2022-11-16T11:09:38.495Z,48.91
2022-11-16T11:12:34.292Z,49.51
2022-11-16T11:15:25.839Z,49.21
2022-11-16T11:18:14.501Z,48.91
2022-11-16T11:20:45.014Z,47.92
2022-11-16T11:23:24.770Z,48.18
2022-11-16T11:25:59.352Z,48.21
2022-11-16T11:28:27.679Z,48.55
2022-11-16T11:31:08.073Z,47.62
2022-11-16T11:33:42.631Z,46.36
2022-11-16T11:36:18.561Z,47.48
2022-11-16T11:39:06.329Z,45.31
2022-11-16T11:41:36.901Z,45.58
2022-11-16T11:44:12.501Z,45.08
2022-11-16T11:49:38.257Z,45.46
2022-11-16T11:52:33.967Z,46.71
2022-11-16T11:55:05.874Z,47.05
2022-11-16T11:57:36.604Z,48.58
2022-11-16T12:00:03.650Z,49.39
2022-11-16T12:02:46.678Z,50.59
2022-11-16T12:05:45.584Z,52.34
2022-11-16T12:08:51.161Z,53.07
2022-11-16T12:11:50.201Z,54.20
2022-11-16T12:14:32.523Z,56.76
2022-11-16T12:17:09.962Z,58.36
2022-11-16T12:20:19.115Z,59.14
2022-11-16T12:23:17.943Z,59.70
2022-11-16T12:25:57.791Z,60.83
2022-11-16T12:28:46.024Z,60.81
2022-11-16T12:31:28.412Z,62.35
2022-11-16T12:34:37.882Z,62.54
2022-11-16T12:37:16.143Z,62.67
2022-11-16T12:40:14.076Z,63.02
2022-11-16T12:42:58.408Z,61.76
2022-11-16T12:45:37.523Z,59.72
2022-11-16T12:48:12.986Z,58.06
2022-11-16T12:50:50.315Z,56.31
2022-11-16T12:53:41.290Z,56.27
2022-11-16T12:56:28.900Z,54.99
2022-11-16T12:59:16.515Z,53.71
2022-11-16T13:02:12.428Z,53.13
2022-11-16T13:04:46.045Z,52.48
2022-11-16T13:07:34.818Z,52.05
2022-11-16T13:10:07.092Z,50.51
2022-11-16T13:12:36.259Z,50.87
2022-11-16T13:15:03.315Z,50.49
2022-11-16T13:17:36.939Z,50.98
2022-11-16T13:20:14.925Z,51.04
2022-11-16T13:22:50.775Z,50.20
2022-11-16T13:25:33.739Z,50.57
2022-11-16T13:28:20.319Z,50.38
2022-11-16T13:31:02.055Z,50.94
2022-11-16T13:33:34.131Z,51.50
2022-11-16T13:36:32.297Z,52.43
2022-11-16T13:38:58.693Z,53.25
2022-11-16T13:41:35.529Z,53.32
2022-11-16T13:44:04.351Z,54.04
2022-11-16T13:46:56.142Z,54.61
2022-11-16T13:49:48.011Z,55.63
2022-11-16T13:52:23.863Z,56.83
2022-11-16T13:54:55.375Z,57.51
2022-11-16T13:57:31.141Z,57.48
2022-11-16T14:00:00.280Z,57.58
2022-11-16T14:02:34.061Z,57.92
2022-11-16T14:05:15.440Z,58.46
2022-11-16T14:07:52.059Z,58.55
2022-11-16T14:10:35.986Z,58.61
2022-11-16T14:13:04.378Z,58.98
2022-11-16T14:15:39.728Z,59.36
2022-11-16T14:18:12.047Z,59.46
2022-11-16T14:20:52.165Z,59.64
2022-11-16T14:23:44.329Z,59.82
2022-11-16T14:26:44.711Z,60.45
2022-11-16T14:29:25.916Z,60.59
2022-11-16T14:31:57.473Z,61.23
2022-11-16T14:34:30.148Z,61.74
2022-11-16T14:36:58.210Z,62.11
2022-11-16T14:39:38.726Z,62.04
2022-11-16T14:42:27.279Z,62.63
2022-11-16T14:45:07.201Z,63.01
2022-11-16T14:47:37.024Z,63.32
2022-11-16T14:50:03.763Z,63.67
2022-11-16T14:52:44.922Z,63.63
2022-11-16T14:55:19.749Z,63.77
2022-11-16T14:57:46.579Z,64.21
2022-11-16T15:00:25.660Z,64.32
2022-11-16T15:02:57.791Z,64.76
2022-11-16T15:05:33.824Z,65.03
2022-11-16T15:08:01.309Z,65.24
2022-11-16T15:10:29.014Z,65.52
2022-11-16T15:12:57.537Z,66.00
2022-11-16T15:15:27.513Z,65.75
2022-11-16T15:18:00.000Z,66.26
2022-11-16T15:20:29.057Z,66.25
2022-11-16T15:22:59.532Z,67.19
2022-11-16T15:25:31.905Z,67.18
2022-11-16T15:28:00.669Z,67.44
2022-11-16T15:30:34.129Z,67.89
2022-11-16T15:33:15.043Z,68.21
2022-11-16T15:35:41.411Z,68.27
2022-11-16T15:38:21.449Z,69.10
2022-11-16T15:40:56.554Z,69.22
2022-11-16T15:43:29.660Z,69.46
2022-11-16T15:45:57.047Z,69.48
2022-11-16T15:48:25.258Z,69.23
2022-11-16T15:51:08.480Z,69.54
2022-11-16T15:53:46.123Z,70.21
2022-11-16T15:56:27.474Z,70.61
2022-11-16T15:59:09.331Z,70.57
2022-11-16T16:01:42.724Z,71.03
2022-11-16T16:04:17.996Z,71.63
2022-11-16T16:06:51.839Z,72.34
2022-11-16T16:09:28.744Z,72.76
2022-11-16T16:12:17.043Z,73.25
2022-11-16T16:14:43.887Z,73.42
2022-11-16T16:17:12.246Z,74.18
2022-11-16T16:19:44.189Z,74.38
2022-11-16T16:22:32.480Z,74.87
2022-11-16T16:24:59.322Z,74.97
2022-11-16T16:27:30.142Z,75.01
2022-11-16T16:29:58.906Z,75.38
2022-11-16T16:32:26.715Z,76.11
2022-11-16T16:34:55.091Z,76.39
2022-11-16T16:37:22.330Z,76.52
2022-11-16T16:39:48.877Z,77.03
2022-11-16T16:42:17.043Z,76.82
2022-11-16T16:44:45.262Z,77.23
2022-11-16T16:47:12.232Z,77.09
2022-11-16T16:49:38.586Z,77.21
2022-11-16T16:52:06.203Z,77.79
2022-11-16T16:54:32.582Z,77.31
2022-11-16T16:57:01.303Z,77.63
2022-11-16T16:59:29.851Z,77.48
2022-11-16T17:01:57.528Z,77.94
2022-11-16T17:04:24.825Z,78.44
2022-11-16T17:06:52.301Z,78.46
2022-11-16T17:09:18.922Z,78.78
2022-11-16T17:11:46.892Z,79.34
2022-11-16T17:14:13.277Z,79.39
2022-11-16T17:16:39.651Z,79.67
2022-11-16T17:19:06.056Z,79.69
2022-11-16T17:21:32.512Z,79.85
2022-11-16T17:23:58.907Z,79.90
2022-11-16T17:26:29.151Z,80.12
2022-11-16T17:28:59.005Z,80.34
2022-11-16T17:31:26.024Z,80.13
2022-11-16T17:33:52.547Z,80.35
2022-11-16T17:36:20.037Z,80.62
2022-11-16T17:38:46.754Z,80.66
2022-11-16T17:41:15.695Z,81.30
2022-11-16T17:43:43.921Z,81.18
2022-11-16T17:46:13.412Z,81.42
2022-11-16T17:48:42.183Z,81.28
2022-11-16T17:51:09.707Z,81.46
2022-11-16T17:53:36.817Z,81.46
2022-11-16T17:56:04.301Z,81.69
2022-11-16T17:58:34.471Z,81.69
2022-11-16T18:01:00.983Z,81.98
2022-11-16T18:03:28.391Z,81.91
2022-11-16T18:06:27.139Z,82.10
2022-11-16T18:08:53.905Z,82.34
2022-11-16T18:11:28.525Z,82.51
2022-11-16T18:13:57.228Z,82.58
2022-11-16T18:16:25.901Z,82.48
2022-11-16T18:19:02.515Z,82.75
2022-11-16T18:21:29.717Z,82.66
2022-11-16T18:23:58.879Z,82.96
2022-11-16T18:26:25.246Z,83.18
2022-11-16T18:28:52.771Z,83.01
2022-11-16T18:31:21.399Z,82.89
2022-11-16T18:33:49.188Z,82.75
2022-11-16T18:36:16.243Z,83.01
2022-11-16T18:38:42.719Z,82.96
2022-11-16T18:41:11.762Z,82.71
2022-11-16T18:43:42.384Z,82.52
2022-11-16T18:46:08.766Z,82.71
2022-11-16T18:48:35.093Z,82.37
2022-11-16T18:51:03.534Z,82.19
2022-11-16T18:53:31.770Z,82.20
2022-11-16T18:55:58.555Z,82.45
2022-11-16T19:01:18.100Z,82.63
2022-11-16T19:03:44.796Z,82.64
2022-11-16T19:06:11.806Z,82.80
2022-11-16T19:08:39.542Z,82.58
2022-11-16T19:11:13.102Z,82.75
2022-11-16T19:13:40.743Z,82.75
2022-11-16T19:16:09.136Z,82.96
2022-11-16T19:18:38.444Z,83.05
2022-11-16T19:21:10.639Z,83.01
2022-11-16T19:23:41.320Z,83.16
2022-11-16T19:26:07.794Z,83.14
2022-11-16T19:28:40.887Z,83.50
2022-11-16T19:31:12.588Z,83.32
2022-11-16T19:33:39.264Z,83.41
2022-11-16T19:36:17.414Z,83.60
2022-11-16T19:38:47.918Z,83.37
2022-11-16T19:41:16.493Z,83.54
2022-11-16T19:43:43.365Z,83.65
2022-11-16T19:46:12.693Z,83.72
2022-11-16T19:48:39.593Z,83.71
2022-11-16T19:51:06.999Z,84.08
2022-11-16T19:53:34.132Z,84.25
2022-11-16T19:56:00.913Z,84.28
2022-11-16T19:58:27.460Z,84.02
2022-11-16T20:01:01.305Z,84.24
2022-11-16T20:03:27.944Z,84.45
2022-11-16T20:06:04.154Z,84.54
2022-11-16T20:08:31.594Z,84.65
2022-11-16T20:10:57.922Z,84.37
2022-11-16T20:13:24.249Z,84.98
2022-11-16T20:15:51.002Z,84.87
2022-11-16T20:18:18.561Z,85.40
2022-11-16T20:20:45.111Z,85.13
2022-11-16T20:23:19.130Z,85.17
2022-11-16T20:25:45.682Z,85.13
2022-11-16T20:28:12.046Z,84.97
2022-11-16T20:30:38.390Z,85.15
2022-11-16T20:33:04.764Z,85.08
2022-11-16T20:35:32.996Z,85.08
2022-11-16T20:37:59.335Z,85.29
2022-11-16T20:40:25.693Z,85.04
2022-11-16T20:42:52.075Z,85.05
2022-11-16T20:45:18.407Z,85.19
2022-11-16T20:47:44.706Z,85.42
2022-11-16T20:50:11.100Z,85.23
2022-11-16T20:52:42.380Z,85.14
2022-11-16T20:55:16.037Z,85.09
2022-11-16T20:57:42.384Z,85.57
2022-11-16T21:00:09.345Z,85.63
2022-11-16T21:02:35.735Z,85.34
2022-11-16T21:05:02.386Z,85.17
2022-11-16T21:07:28.823Z,85.06
2022-11-16T21:10:27.328Z,85.63
2022-11-16T21:13:12.194Z,85.45
2022-11-16T21:15:38.513Z,85.23
2022-11-16T21:18:04.993Z,85.15
2022-11-16T21:20:31.438Z,85.38
2022-11-16T21:22:57.750Z,85.08
2022-11-16T21:25:24.156Z,85.20
2022-11-16T21:27:50.557Z,85.31
2022-11-16T21:30:17.073Z,85.13
2022-11-16T21:32:43.452Z,85.17
2022-11-16T21:35:09.843Z,85.05
2022-11-16T21:37:36.228Z,85.55
2022-11-16T21:40:03.335Z,85.65
2022-11-16T21:42:29.702Z,85.44
2022-11-16T21:44:56.035Z,85.23
2022-11-16T21:47:22.420Z,85.82
2022-11-16T21:50:16.755Z,85.69
2022-11-16T21:52:35.064Z,85.57
2022-11-16T21:55:01.569Z,86.01
2022-11-16T21:57:27.998Z,85.75
2022-11-16T21:59:54.381Z,85.75
2022-11-16T22:02:20.711Z,85.81
2022-11-16T22:05:05.416Z,85.63
2022-11-16T22:07:36.626Z,85.87
2022-11-16T22:10:08.652Z,85.81
2022-11-16T22:12:36.381Z,85.90
2022-11-16T22:15:04.322Z,86.14
2022-11-16T22:17:31.022Z,85.94
2022-11-16T22:19:57.368Z,85.55
2022-11-16T22:22:24.539Z,86.12
2022-11-16T22:24:51.159Z,86.30
2022-11-16T22:27:18.513Z,86.34
2022-11-16T22:29:44.835Z,86.32
2022-11-16T22:32:11.151Z,86.41
2022-11-16T22:34:37.564Z,86.54
2022-11-16T22:37:03.926Z,87.01
2022-11-16T22:39:30.374Z,87.27
2022-11-16T22:41:56.822Z,87.14
2022-11-16T22:44:23.181Z,87.51
2022-11-16T22:46:49.499Z,87.68
2022-11-16T22:49:15.858Z,87.84
2022-11-16T22:51:42.271Z,88.13
2022-11-16T22:54:11.316Z,88.06
2022-11-16T22:56:38.516Z,88.39
2022-11-16T22:59:07.756Z,88.59
2022-11-16T23:01:34.088Z,88.91
2022-11-16T23:04:00.540Z,89.17
2022-11-16T23:06:27.041Z,89.67
2022-11-16T23:08:53.720Z,89.78
2022-11-16T23:11:43.758Z,89.71
2022-11-16T23:14:31.212Z,90.10
2022-11-16T23:16:57.585Z,90.79
2022-11-16T23:19:42.779Z,90.94
2022-11-16T23:22:33.146Z,91.11
2022-11-16T23:25:18.299Z,91.60
2022-11-16T23:28:07.691Z,92.03
2022-11-16T23:30:35.031Z,92.20
2022-11-16T23:33:02.223Z,92.44
2022-11-16T23:35:28.590Z,92.74
2022-11-16T23:38:01.913Z,93.17
2022-11-16T23:40:31.108Z,93.50
2022-11-16T23:43:16.704Z,93.41
2022-11-16T23:45:44.394Z,93.54
2022-11-16T23:48:15.282Z,93.65
2022-11-16T23:50:42.239Z,94.10
2022-11-16T23:53:10.178Z,94.37
2022-11-16T23:55:38.322Z,94.79
2022-11-16T23:58:05.486Z,94.84
